createdAt,value
2019-05-20T00:02:25.990Z,31.40
2019-05-20T00:04:50.012Z,31.60
2019-05-20T00:07:21.699Z,31.90
2019-05-20T00:09:52.936Z,32.10
2019-05-20T00:12:24.548Z,32.40
2019-05-20T00:14:56.261Z,32.70
2019-05-20T00:17:28.178Z,32.90
2019-05-20T00:19:59.318Z,33.30
2019-05-20T00:22:30.968Z,33.60
2019-05-20T00:25:02.529Z,33.90
2019-05-20T00:27:34.190Z,34.20
2019-05-20T00:30:06.982Z,34.50
2019-05-20T00:32:41.858Z,34.70
2019-05-20T00:35:11.714Z,35.10
2019-05-20T00:37:43.677Z,35.40
2019-05-20T00:40:15.450Z,35.70
2019-05-20T00:42:45.589Z,35.90
2019-05-20T00:45:16.923Z,36.10
2019-05-20T00:47:48.068Z,36.30
2019-05-20T00:50:19.709Z,36.60
2019-05-20T00:52:49.627Z,36.80
2019-05-20T00:55:23.228Z,37.20
2019-05-20T00:57:54.787Z,37.50
2019-05-20T01:00:25.225Z,37.70
2019-05-20T01:02:57.483Z,37.80
2019-05-20T01:05:28.986Z,37.90
2019-05-20T01:08:00.913Z,38.10
2019-05-20T01:10:32.558Z,38.30
2019-05-20T01:13:03.874Z,38.40
2019-05-20T01:15:35.464Z,38.70
2019-05-20T01:18:06.713Z,39.00
2019-05-20T01:20:38.356Z,39.10
2019-05-20T01:23:10.275Z,39.30
2019-05-20T01:25:41.991Z,39.60
2019-05-20T01:28:13.227Z,39.70
2019-05-20T01:30:44.480Z,39.80
2019-05-20T01:33:15.634Z,39.90
2019-05-20T01:35:47.387Z,40.10
2019-05-20T01:38:18.835Z,40.30
2019-05-20T01:40:50.143Z,40.40
2019-05-20T01:43:20.858Z,40.60
2019-05-20T01:45:52.701Z,40.70
2019-05-20T01:48:24.752Z,40.80
2019-05-20T01:50:56.101Z,41.00
2019-05-20T01:53:26.653Z,41.00
2019-05-20T01:55:57.936Z,41.00
2019-05-20T01:58:28.681Z,41.00
2019-05-20T02:01:00.641Z,41.10
2019-05-20T02:03:32.658Z,41.10
2019-05-20T02:06:04.519Z,41.10
2019-05-20T02:08:36.260Z,41.30
2019-05-20T02:11:08.074Z,41.30
2019-05-20T02:13:41.169Z,41.30
2019-05-20T02:16:13.095Z,41.20
2019-05-20T02:18:44.845Z,41.10
2019-05-20T02:21:16.589Z,41.10
2019-05-20T02:23:48.351Z,41.10
2019-05-20T02:26:19.668Z,41.10
2019-05-20T02:28:51.578Z,41.20
2019-05-20T02:31:23.318Z,41.40
2019-05-20T02:33:55.103Z,41.60
2019-05-20T02:36:26.871Z,41.80
2019-05-20T02:38:58.182Z,41.90
2019-05-20T02:41:30.367Z,41.90
2019-05-20T02:44:03.462Z,42.10
2019-05-20T02:46:34.901Z,42.10
2019-05-20T02:49:06.564Z,42.10
2019-05-20T02:51:38.403Z,42.10
2019-05-20T02:54:10.089Z,42.10
2019-05-20T02:56:41.385Z,41.90
2019-05-20T02:59:13.000Z,41.90
2019-05-20T03:01:44.754Z,41.90
2019-05-20T03:04:16.512Z,41.80
2019-05-20T03:06:47.632Z,41.90
2019-05-20T03:09:18.193Z,42.00
2019-05-20T03:11:49.509Z,42.10
2019-05-20T03:14:21.197Z,42.30
2019-05-20T03:16:52.401Z,42.30
2019-05-20T03:19:22.665Z,42.30
2019-05-20T03:21:54.236Z,42.20
2019-05-20T03:24:25.978Z,42.20
2019-05-20T03:26:57.732Z,42.20
2019-05-20T03:29:29.372Z,42.10
2019-05-20T03:32:00.954Z,42.20
2019-05-20T03:34:46.448Z,42.50
2019-05-20T03:37:05.690Z,42.90
2019-05-20T03:39:37.447Z,43.30
2019-05-20T03:42:09.210Z,43.50
2019-05-20T03:44:40.964Z,43.50
2019-05-20T03:47:12.731Z,43.30
2019-05-20T03:49:44.484Z,42.90
2019-05-20T03:52:16.268Z,42.40
2019-05-20T03:54:48.002Z,42.00
2019-05-20T03:57:19.879Z,41.60
2019-05-20T03:59:51.620Z,41.20
2019-05-20T04:02:23.291Z,41.00
2019-05-20T04:05:01.934Z,40.80
2019-05-20T04:07:28.034Z,40.80
2019-05-20T04:09:59.797Z,40.70
2019-05-20T04:12:31.550Z,40.50
2019-05-20T04:15:03.428Z,40.30
2019-05-20T04:17:34.539Z,40.10
2019-05-20T04:20:07.031Z,40.00
2019-05-20T04:22:38.182Z,40.00
2019-05-20T04:25:08.840Z,40.00
2019-05-20T04:27:40.367Z,40.00
2019-05-20T04:30:12.504Z,39.90
2019-05-20T04:32:43.661Z,39.90
2019-05-20T04:35:22.423Z,39.80
2019-05-20T04:37:47.914Z,39.80
2019-05-20T04:40:19.185Z,39.70
2019-05-20T04:42:49.606Z,39.70
2019-05-20T04:45:21.663Z,39.80
2019-05-20T04:47:53.426Z,39.80
2019-05-20T04:50:24.255Z,39.70
2019-05-20T04:52:55.118Z,39.70
2019-05-20T04:55:25.970Z,39.50
2019-05-20T04:57:56.990Z,39.20
2019-05-20T05:00:30.164Z,38.90
2019-05-20T05:03:01.026Z,38.70
2019-05-20T05:05:37.635Z,38.50
2019-05-20T05:08:04.731Z,38.40
2019-05-20T05:10:36.596Z,38.40
2019-05-20T05:13:08.242Z,38.50
2019-05-20T05:15:40.010Z,38.50
2019-05-20T05:18:11.886Z,38.50
2019-05-20T05:20:43.651Z,38.40
2019-05-20T05:23:15.911Z,38.50
2019-05-20T05:25:47.973Z,38.60
2019-05-20T05:28:19.723Z,38.70
2019-05-20T05:30:51.486Z,38.80
2019-05-20T05:33:22.735Z,38.80
2019-05-20T05:35:54.029Z,38.80
2019-05-20T05:38:25.955Z,38.80
2019-05-20T05:40:57.607Z,38.60
2019-05-20T05:43:29.380Z,38.50
2019-05-20T05:46:01.129Z,38.50
2019-05-20T05:48:32.883Z,38.50
2019-05-20T05:51:04.220Z,38.60
2019-05-20T05:53:33.937Z,38.60
2019-05-20T05:56:04.761Z,38.70
2019-05-20T05:58:35.829Z,38.70
2019-05-20T06:01:06.777Z,38.70
2019-05-20T06:03:37.746Z,38.70
2019-05-20T06:06:12.712Z,38.60
2019-05-20T06:08:42.449Z,38.60
2019-05-20T06:11:14.334Z,38.60
2019-05-20T06:13:47.094Z,38.60
2019-05-20T06:16:35.424Z,38.70
2019-05-20T06:18:53.002Z,38.60
2019-05-20T06:21:25.634Z,38.60
2019-05-20T06:24:00.866Z,38.60
2019-05-20T06:26:32.855Z,38.60
2019-05-20T06:29:04.016Z,38.60
2019-05-20T06:31:35.032Z,38.70
2019-05-20T06:34:06.870Z,38.70
2019-05-20T06:36:39.569Z,38.80
2019-05-20T06:39:12.858Z,38.90
2019-05-20T06:41:45.226Z,38.90
2019-05-20T06:44:17.177Z,39.00
2019-05-20T06:46:48.927Z,39.00
2019-05-20T06:49:20.219Z,39.00
2019-05-20T06:51:50.610Z,38.90
2019-05-20T06:54:21.939Z,39.00
2019-05-20T06:56:52.599Z,39.00
2019-05-20T06:59:24.716Z,39.10
2019-05-20T07:01:57.014Z,39.10
2019-05-20T07:04:28.709Z,39.10
2019-05-20T07:06:59.889Z,39.10
2019-05-20T07:09:31.728Z,39.00
2019-05-20T07:12:03.524Z,39.00
2019-05-20T07:14:35.482Z,39.00
2019-05-20T07:17:07.564Z,39.00
2019-05-20T07:19:38.594Z,39.00
2019-05-20T07:22:09.452Z,39.00
2019-05-20T07:24:40.330Z,39.10
2019-05-20T07:27:11.555Z,39.10
2019-05-20T07:29:42.276Z,39.10
2019-05-20T07:32:14.265Z,39.00
2019-05-20T07:34:45.744Z,39.00
2019-05-20T07:37:17.642Z,39.00
2019-05-20T07:39:49.403Z,39.00
2019-05-20T07:42:21.006Z,38.90
2019-05-20T07:44:52.901Z,38.90
2019-05-20T07:47:24.972Z,38.90
2019-05-20T07:49:56.519Z,38.80
2019-05-20T07:52:30.132Z,38.80
2019-05-20T07:55:02.260Z,38.80
2019-05-20T07:57:36.017Z,38.80
2019-05-20T08:00:10.234Z,38.80
2019-05-20T08:02:41.840Z,38.80
2019-05-20T08:05:14.049Z,38.80
2019-05-20T08:07:51.953Z,38.80
2019-05-20T08:10:19.256Z,38.80
2019-05-20T08:12:50.747Z,38.80
2019-05-20T08:15:22.626Z,38.70
2019-05-20T08:17:54.647Z,38.70
2019-05-20T08:20:30.296Z,38.70
2019-05-20T08:23:02.565Z,38.70
2019-05-20T08:25:34.616Z,38.60
2019-05-20T08:28:06.498Z,38.50
2019-05-20T08:30:40.266Z,38.40
2019-05-20T08:33:12.263Z,38.40
2019-05-20T08:35:44.075Z,38.30
2019-05-20T08:38:15.947Z,38.20
2019-05-20T08:40:48.753Z,38.20
2019-05-20T08:43:20.439Z,38.20
2019-05-20T08:45:52.350Z,38.20
2019-05-20T08:48:24.097Z,38.10
2019-05-20T08:50:55.654Z,38.10
2019-05-20T08:53:27.211Z,38.00
2019-05-20T08:55:59.079Z,38.00
2019-05-20T08:58:30.687Z,38.00
2019-05-20T09:01:02.193Z,38.00
2019-05-20T09:03:34.046Z,37.90
2019-05-20T09:06:06.130Z,37.80
2019-05-20T09:08:37.959Z,37.80
2019-05-20T09:11:09.522Z,37.70
2019-05-20T09:13:41.183Z,37.60
2019-05-20T09:16:13.302Z,37.50
2019-05-20T09:21:15.768Z,37.40
2019-05-20T09:23:47.069Z,37.40
2019-05-20T09:26:19.066Z,37.40
2019-05-20T09:28:51.053Z,37.40
2019-05-20T09:31:22.371Z,37.40
2019-05-20T09:33:53.812Z,37.40
2019-05-20T09:36:25.972Z,37.40
2019-05-20T09:38:57.473Z,37.40
2019-05-20T09:41:29.316Z,37.30
2019-05-20T09:44:01.291Z,37.30
2019-05-20T09:46:34.365Z,37.30
2019-05-20T09:49:06.652Z,37.30
2019-05-20T09:51:38.624Z,37.30
2019-05-20T09:54:14.742Z,37.20
2019-05-20T09:56:46.458Z,37.20
2019-05-20T09:59:23.179Z,37.10
2019-05-20T10:01:56.511Z,37.00
2019-05-20T10:04:27.956Z,36.90
2019-05-20T10:07:01.905Z,36.80
2019-05-20T10:09:34.909Z,36.80
2019-05-20T10:12:06.224Z,36.80
2019-05-20T10:14:37.745Z,36.70
2019-05-20T10:17:08.206Z,36.70
2019-05-20T10:19:40.476Z,36.60
2019-05-20T10:22:12.720Z,36.60
2019-05-20T10:24:43.748Z,36.60
2019-05-20T10:27:15.634Z,36.50
2019-05-20T10:29:47.383Z,36.50
2019-05-20T10:32:19.155Z,36.50
2019-05-20T10:34:50.529Z,36.40
2019-05-20T10:37:21.897Z,36.40
2019-05-20T10:39:54.128Z,36.40
2019-05-20T10:42:25.870Z,36.30
2019-05-20T10:44:57.649Z,36.30
2019-05-20T10:47:29.399Z,36.20
2019-05-20T10:50:01.172Z,36.20
2019-05-20T10:52:32.918Z,36.10
2019-05-20T10:55:04.234Z,36.00
2019-05-20T10:57:36.138Z,36.00
2019-05-20T11:00:09.644Z,36.00
2019-05-20T11:02:41.197Z,35.90
2019-05-20T11:05:12.038Z,35.80
2019-05-20T11:07:43.531Z,35.70
2019-05-20T11:10:16.398Z,35.60
2019-05-20T11:12:48.224Z,35.50
2019-05-20T11:15:20.707Z,35.40
2019-05-20T11:17:52.024Z,35.30
2019-05-20T11:22:54.506Z,35.10
2019-05-20T11:25:26.411Z,35.10
2019-05-20T11:27:58.152Z,35.00
2019-05-20T11:30:29.924Z,34.90
2019-05-20T11:33:01.779Z,34.80
2019-05-20T11:35:33.311Z,34.70
2019-05-20T11:38:04.837Z,34.70
2019-05-20T11:40:36.650Z,34.50
2019-05-20T11:43:08.417Z,34.40
2019-05-20T11:45:38.649Z,34.30
2019-05-20T11:48:09.981Z,34.20
2019-05-20T11:50:41.862Z,34.20
2019-05-20T11:53:13.621Z,34.10
2019-05-20T11:55:43.850Z,34.00
2019-05-20T11:58:16.510Z,33.90
2019-05-20T12:00:48.172Z,33.80
2019-05-20T12:03:19.741Z,33.70
2019-05-20T12:05:51.502Z,33.60
2019-05-20T12:08:21.947Z,33.50
2019-05-20T12:10:53.778Z,33.40
2019-05-20T12:13:24.214Z,33.40
2019-05-20T12:15:55.279Z,33.30
2019-05-20T12:18:26.851Z,33.20
2019-05-20T12:20:58.673Z,33.10
2019-05-20T12:23:29.216Z,33.00
2019-05-20T12:26:00.595Z,33.00
2019-05-20T12:28:32.411Z,32.90
2019-05-20T12:31:03.027Z,32.90
2019-05-20T12:33:34.710Z,32.90
2019-05-20T12:36:07.072Z,32.80
2019-05-20T12:38:38.836Z,32.70
2019-05-20T12:41:10.582Z,32.70
2019-05-20T12:43:44.816Z,32.70
2019-05-20T12:46:14.699Z,32.70
2019-05-20T12:48:46.548Z,32.70
2019-05-20T12:51:17.031Z,32.70
2019-05-20T12:53:48.360Z,32.70
2019-05-20T12:56:20.218Z,32.70
2019-05-20T12:58:50.476Z,32.70
2019-05-20T13:01:21.924Z,32.60
2019-05-20T13:03:53.658Z,32.60
2019-05-20T13:06:25.432Z,32.50
2019-05-20T13:08:57.179Z,32.50
2019-05-20T13:11:28.944Z,32.50
2019-05-20T13:14:00.303Z,32.50
2019-05-20T13:16:31.459Z,32.50
2019-05-20T13:19:03.289Z,32.50
2019-05-20T13:21:33.732Z,32.50
2019-05-20T13:24:05.499Z,32.40
2019-05-20T13:26:37.348Z,32.40
2019-05-20T13:29:07.804Z,32.40
2019-05-20T13:31:39.634Z,32.40
2019-05-20T13:34:11.503Z,32.40
2019-05-20T13:36:41.553Z,32.40
2019-05-20T13:39:13.378Z,32.40
2019-05-20T13:41:44.693Z,32.40
2019-05-20T13:44:15.871Z,32.40
2019-05-20T13:46:47.332Z,32.40
2019-05-20T13:51:49.533Z,32.50
2019-05-20T13:54:20.638Z,32.40
2019-05-20T13:56:51.866Z,32.30
2019-05-20T13:59:23.235Z,32.30
2019-05-20T14:01:54.372Z,32.30
2019-05-20T14:04:25.966Z,32.20
2019-05-20T14:37:32.175Z,31.50
2019-05-20T14:40:03.396Z,31.30
2019-05-20T14:42:35.173Z,31.30
2019-05-20T14:45:07.867Z,31.20
2019-05-20T14:47:39.632Z,31.20
2019-05-20T14:50:12.209Z,31.20
2019-05-20T14:52:43.778Z,31.20
2019-05-20T14:55:15.416Z,31.20
2019-05-20T14:57:46.991Z,31.20
2019-05-20T15:00:19.478Z,31.40
2019-05-20T15:02:50.655Z,31.60
2019-05-20T15:05:22.261Z,31.70
2019-05-20T15:07:53.662Z,31.80
2019-05-20T15:10:25.023Z,32.00
2019-05-20T15:12:56.702Z,32.10
2019-05-20T15:15:27.751Z,32.20
2019-05-20T15:17:59.189Z,32.30
2019-05-20T15:20:30.552Z,32.30
2019-05-20T15:23:02.527Z,32.40
2019-05-20T15:25:32.554Z,32.40
2019-05-20T15:28:04.085Z,32.40
2019-05-20T15:30:35.429Z,32.30
2019-05-20T15:33:07.099Z,32.30
2019-05-20T15:35:38.571Z,32.30
2019-05-20T15:38:09.706Z,32.30
2019-05-20T15:40:41.030Z,32.30
2019-05-20T15:43:12.351Z,32.30
2019-05-20T15:45:43.504Z,32.30
2019-05-20T15:48:15.091Z,32.30
2019-05-20T15:50:46.950Z,32.30
2019-05-20T15:53:18.664Z,32.30
2019-05-20T15:55:49.931Z,32.30
2019-05-20T15:58:23.680Z,32.30
2019-05-20T16:00:54.018Z,32.30
2019-05-20T16:03:25.095Z,32.30
2019-05-20T16:05:59.737Z,32.30
2019-05-20T16:08:28.991Z,32.30
2019-05-20T16:11:00.619Z,32.30
2019-05-20T16:13:32.479Z,32.20
2019-05-20T16:16:02.528Z,32.20
2019-05-20T16:18:33.560Z,32.10
2019-05-20T16:21:05.202Z,32.00
2019-05-20T16:23:36.969Z,31.90
2019-05-20T16:26:08.239Z,31.90
2019-05-20T16:28:39.760Z,31.80
2019-05-20T16:31:11.320Z,31.60
2019-05-20T16:33:42.681Z,31.50
2019-05-20T16:36:14.217Z,31.50
2019-05-20T16:38:46.087Z,31.40
2019-05-20T16:41:16.125Z,31.30
2019-05-20T16:43:47.648Z,31.30
2019-05-20T16:46:19.525Z,31.20
2019-05-20T16:48:50.967Z,31.20
2019-05-20T16:51:22.990Z,31.20
2019-05-20T16:53:54.700Z,31.00
2019-05-20T16:56:26.069Z,31.00
2019-05-20T16:58:57.699Z,31.00
2019-05-20T17:01:29.150Z,30.90
2019-05-20T17:04:00.915Z,30.90
2019-05-20T17:06:32.352Z,30.90
2019-05-20T17:09:03.917Z,30.80
2019-05-20T17:11:35.354Z,30.70
2019-05-20T17:14:10.435Z,30.70
2019-05-20T17:16:40.225Z,30.60
2019-05-20T17:19:12.076Z,30.60
2019-05-20T17:21:43.843Z,30.60
2019-05-20T17:24:15.287Z,30.60
2019-05-20T17:26:46.361Z,30.60
2019-05-20T17:29:17.436Z,30.60
2019-05-20T17:31:49.244Z,30.60
2019-05-20T17:34:20.573Z,30.60
2019-05-20T17:36:52.161Z,30.60
2019-05-20T17:39:23.959Z,30.60
2019-05-20T17:41:54.356Z,30.60
2019-05-20T17:44:25.887Z,30.50
2019-05-20T17:46:57.239Z,30.50
2019-05-20T17:49:28.810Z,30.40
2019-05-20T17:52:00.133Z,30.30
2019-05-20T17:54:31.248Z,30.20
2019-05-20T17:57:02.852Z,30.20
2019-05-20T17:59:34.599Z,30.10
2019-05-20T18:02:07.694Z,30.10
2019-05-20T18:04:39.452Z,30.00
2019-05-20T18:07:11.419Z,30.00
2019-05-20T18:09:42.944Z,29.90
2019-05-20T18:12:14.200Z,29.90
2019-05-20T18:14:47.110Z,29.80
2019-05-20T18:17:18.375Z,29.70
2019-05-20T18:19:49.418Z,29.70
2019-05-20T18:22:20.946Z,29.70
2019-05-20T18:24:52.508Z,29.70
2019-05-20T18:27:24.110Z,29.70
2019-05-20T18:29:55.741Z,29.70
2019-05-20T18:32:27.092Z,29.70
2019-05-20T18:34:58.120Z,29.70
2019-05-20T18:37:29.760Z,29.80
2019-05-20T18:40:13.227Z,29.90
2019-05-20T18:42:34.210Z,29.90
2019-05-20T18:45:06.897Z,30.00
2019-05-20T18:47:38.132Z,30.10
2019-05-20T18:50:09.745Z,30.10
2019-05-20T18:52:41.121Z,30.10
2019-05-20T18:55:13.314Z,30.20
2019-05-20T18:57:45.168Z,30.20
2019-05-20T19:00:17.145Z,30.10
2019-05-20T19:02:46.853Z,30.10
2019-05-20T19:05:18.089Z,30.20
2019-05-20T19:07:49.525Z,30.10
2019-05-20T19:10:21.033Z,30.10
2019-05-20T19:12:51.909Z,30.10
2019-05-20T19:15:23.387Z,30.10
2019-05-20T19:17:54.610Z,30.00
2019-05-20T19:20:25.942Z,30.00
2019-05-20T19:22:57.439Z,30.00
2019-05-20T19:25:37.482Z,29.90
2019-05-20T19:28:00.473Z,29.90
2019-05-20T19:30:32.109Z,29.90
2019-05-20T19:33:03.977Z,29.80
2019-05-20T19:35:35.645Z,29.70
2019-05-20T19:38:07.181Z,29.70
2019-05-20T19:40:38.934Z,29.60
2019-05-20T19:43:10.184Z,29.60
2019-05-20T19:45:41.836Z,29.60
2019-05-20T19:48:13.610Z,29.50
2019-05-20T19:50:44.537Z,29.50
2019-05-20T19:53:15.575Z,29.40
2019-05-20T19:55:46.879Z,29.40
2019-05-20T19:58:17.737Z,29.40
2019-05-20T20:00:48.875Z,29.50
2019-05-20T20:03:19.830Z,29.40
2019-05-20T20:05:51.526Z,29.40
2019-05-20T20:08:22.723Z,29.50
2019-05-20T20:10:54.409Z,29.50
2019-05-20T20:13:25.616Z,29.60
2019-05-20T20:15:57.332Z,29.60
2019-05-20T20:18:28.663Z,29.60
2019-05-20T20:20:59.613Z,29.70
2019-05-20T20:23:31.476Z,29.70
2019-05-20T20:26:02.829Z,29.70
2019-05-20T20:28:34.114Z,29.70
2019-05-20T20:31:06.147Z,29.80
2019-05-20T20:33:36.283Z,29.80
2019-05-20T20:36:07.548Z,29.80
2019-05-20T20:38:39.261Z,29.80
2019-05-20T20:41:10.293Z,29.80
2019-05-20T20:43:41.652Z,29.80
2019-05-20T20:46:13.316Z,29.80
2019-05-20T20:48:44.526Z,29.80
2019-05-20T20:51:15.700Z,29.70
2019-05-20T20:53:46.808Z,29.70
2019-05-20T20:56:25.175Z,29.70
2019-05-20T20:58:51.424Z,29.70
2019-05-20T21:01:23.154Z,29.60
2019-05-20T21:03:54.920Z,29.60
2019-05-20T21:06:26.785Z,29.60
2019-05-20T21:08:57.984Z,29.60
2019-05-20T21:11:29.595Z,29.60
2019-05-20T21:14:01.362Z,29.50
2019-05-20T21:16:33.160Z,29.50
2019-05-20T21:19:04.459Z,29.50
2019-05-20T21:21:36.311Z,29.50
2019-05-20T21:24:07.560Z,29.40
2019-05-20T21:26:38.641Z,29.30
2019-05-20T21:29:10.361Z,29.30
2019-05-20T21:31:41.693Z,29.20
2019-05-20T21:34:13.108Z,29.10
2019-05-20T21:36:47.906Z,29.10
2019-05-20T21:39:17.708Z,29.00
2019-05-20T21:41:49.363Z,29.00
2019-05-20T21:44:20.548Z,29.00
2019-05-20T21:46:51.624Z,29.10
2019-05-20T21:49:23.198Z,29.10
2019-05-20T21:51:54.758Z,29.10
2019-05-20T21:54:26.521Z,29.10
2019-05-20T21:56:58.276Z,29.10
2019-05-20T21:59:29.784Z,29.10
2019-05-20T22:02:01.385Z,29.00
2019-05-20T22:04:33.104Z,28.90
2019-05-20T22:07:04.999Z,28.80
2019-05-20T22:09:36.254Z,28.80
2019-05-20T22:12:07.360Z,28.70
2019-05-20T22:14:38.945Z,28.70
2019-05-20T22:17:10.681Z,28.70
2019-05-20T22:19:42.619Z,28.70
2019-05-20T22:22:15.308Z,28.80
2019-05-20T22:24:46.457Z,28.80
2019-05-20T22:27:17.755Z,28.80
2019-05-20T22:29:48.764Z,28.90
2019-05-20T22:32:19.917Z,28.80
2019-05-20T22:34:53.534Z,28.70
2019-05-20T22:37:24.391Z,28.70
2019-05-20T22:39:56.038Z,28.60
2019-05-20T22:42:27.700Z,28.50
2019-05-20T22:44:59.043Z,28.40
2019-05-20T22:47:31.007Z,28.40
2019-05-20T22:50:02.223Z,28.40
2019-05-20T22:52:33.801Z,28.30
2019-05-20T22:55:06.176Z,28.30
2019-05-20T22:57:38.054Z,28.30
2019-05-20T23:00:09.191Z,28.30
2019-05-20T23:02:40.401Z,28.40
2019-05-20T23:05:12.153Z,28.40
2019-05-20T23:07:43.397Z,28.50
2019-05-20T23:10:15.514Z,28.50
2019-05-20T23:12:45.740Z,28.60
2019-05-20T23:15:17.338Z,28.60
2019-05-20T23:17:48.943Z,28.60
2019-05-20T23:20:20.807Z,28.70
2019-05-20T23:22:52.271Z,28.80
2019-05-20T23:25:23.920Z,28.90
2019-05-20T23:27:55.290Z,29.10
2019-05-20T23:30:26.331Z,29.20
2019-05-20T23:32:57.864Z,29.40
2019-05-20T23:35:28.830Z,29.50
2019-05-20T23:38:00.093Z,29.70
2019-05-20T23:40:31.705Z,29.90
2019-05-20T23:43:03.570Z,30.00
2019-05-20T23:45:34.703Z,30.30
2019-05-20T23:48:06.424Z,30.50
2019-05-20T23:50:37.691Z,30.70
2019-05-20T23:53:09.269Z,31.00
2019-05-20T23:55:41.035Z,31.20
2019-05-20T23:58:12.795Z,31.30
